sensor_id;sensor_type;location;lat;lon;timestamp;P1;durP1;ratioP1;P2;durP2;ratioP2
13415;SDS011;6779;50.150;8.680;2024-01-15T00:01:02;32.97;;;14.77;;
13415;SDS011;6779;50.150;8.680;2024-01-15T00:03:28;32.63;;;15.83;;
13415;SDS011;6779;50.150;8.680;2024-01-15T00:05:53;36.30;;;14.43;;
13415;SDS011;6779;50.150;8.680;2024-01-15T00:08:19;33.50;;;14.77;;
13415;SDS011;6779;50.150;8.680;2024-01-15T00:10:44;33.43;;;14.10;;
13415;SDS011;6779;50.150;8.680;2024-01-15T00:13:09;39.20;;;15.53;;
13415;SDS011;6779;50.150;8.680;2024-01-15T00:15:35;35.40;;;14.97;;
13415;SDS011;6779;50.150;8.680;2024-01-15T00:18:00;36.97;;;15.10;;
13415;SDS011;6779;50.150;8.680;2024-01-15T00:20:25;29.80;;;13.80;;
13415;SDS011;6779;50.150;8.680;2024-01-15T00:22:51;32.87;;;14.97;;
13415;SDS011;6779;50.150;8.680;2024-01-15T00:25:16;32.83;;;15.07;;
13415;SDS011;6779;50.150;8.680;2024-01-15T00:27:41;32.43;;;14.97;;
13415;SDS011;6779;50.150;8.680;2024-01-15T00:30:07;35.70;;;15.30;;
13415;SDS011;6779;50.150;8.680;2024-01-15T00:32:32;34.13;;;15.10;;
13415;SDS011;6779;50.150;8.680;2024-01-15T00:34:57;36.93;;;14.17;;
13415;SDS011;6779;50.150;8.680;2024-01-15T00:37:23;31.97;;;14.43;;
13415;SDS011;6779;50.150;8.680;2024-01-15T00:39:48;31.13;;;13.50;;
13415;SDS011;6779;50.150;8.680;2024-01-15T00:42:13;33.93;;;14.53;;
13415;SDS011;6779;50.150;8.680;2024-01-15T00:44:38;31.53;;;13.87;;
13415;SDS011;6779;50.150;8.680;2024-01-15T00:47:04;35.43;;;15.87;;
13415;SDS011;6779;50.150;8.680;2024-01-15T00:49:29;34.23;;;15.20;;
13415;SDS011;6779;50.150;8.680;2024-01-15T00:51:55;32.83;;;15.10;;
13415;SDS011;6779;50.150;8.680;2024-01-15T00:54:20;34.83;;;14.37;;
13415;SDS011;6779;50.150;8.680;2024-01-15T00:56:45;30.33;;;14.50;;
13415;SDS011;6779;50.150;8.680;2024-01-15T00:59:10;28.90;;;13.43;;
13415;SDS011;6779;50.150;8.680;2024-01-15T01:01:39;36.13;;;14.63;;
13415;SDS011;6779;50.150;8.680;2024-01-15T01:04:07;33.63;;;14.40;;
13415;SDS011;6779;50.150;8.680;2024-01-15T01:06:33;36.30;;;15.63;;
13415;SDS011;6779;50.150;8.680;2024-01-15T01:08:59;37.70;;;15.63;;
13415;SDS011;6779;50.150;8.680;2024-01-15T01:11:24;37.20;;;15.33;;
13415;SDS011;6779;50.150;8.680;2024-01-15T01:13:49;30.47;;;14.73;;
13415;SDS011;6779;50.150;8.680;2024-01-15T01:16:14;35.27;;;15.40;;
13415;SDS011;6779;50.150;8.680;2024-01-15T01:18:40;32.17;;;15.03;;
13415;SDS011;6779;50.150;8.680;2024-01-15T01:21:05;33.93;;;13.83;;
13415;SDS011;6779;50.150;8.680;2024-01-15T01:23:30;38.33;;;15.43;;
13415;SDS011;6779;50.150;8.680;2024-01-15T01:25:56;33.23;;;14.33;;
13415;SDS011;6779;50.150;8.680;2024-01-15T01:28:21;38.60;;;14.27;;
13415;SDS011;6779;50.150;8.680;2024-01-15T01:30:46;32.53;;;14.33;;
13415;SDS011;6779;50.150;8.680;2024-01-15T01:33:12;34.07;;;14.70;;
13415;SDS011;6779;50.150;8.680;2024-01-15T01:35:37;33.63;;;13.40;;
13415;SDS011;6779;50.150;8.680;2024-01-15T01:38:02;34.67;;;15.47;;
13415;SDS011;6779;50.150;8.680;2024-01-15T01:40:28;29.63;;;14.90;;
13415;SDS011;6779;50.150;8.680;2024-01-15T01:42:53;35.33;;;15.57;;
13415;SDS011;6779;50.150;8.680;2024-01-15T01:45:18;37.97;;;14.40;;
13415;SDS011;6779;50.150;8.680;2024-01-15T01:47:44;31.17;;;14.63;;
13415;SDS011;6779;50.150;8.680;2024-01-15T01:50:09;30.93;;;15.13;;
13415;SDS011;6779;50.150;8.680;2024-01-15T01:52:34;31.97;;;15.20;;
13415;SDS011;6779;50.150;8.680;2024-01-15T01:55:01;30.37;;;13.37;;
13415;SDS011;6779;50.150;8.680;2024-01-15T01:57:27;34.50;;;14.17;;
13415;SDS011;6779;50.150;8.680;2024-01-15T01:59:53;33.57;;;14.80;;
13415;SDS011;6779;50.150;8.680;2024-01-15T02:02:19;36.23;;;15.20;;
13415;SDS011;6779;50.150;8.680;2024-01-15T02:04:44;34.20;;;14.07;;
13415;SDS011;6779;50.150;8.680;2024-01-15T02:07:12;31.77;;;14.17;;
13415;SDS011;6779;50.150;8.680;2024-01-15T02:09:37;31.07;;;14.03;;
13415;SDS011;6779;50.150;8.680;2024-01-15T02:12:02;35.77;;;14.87;;
13415;SDS011;6779;50.150;8.680;2024-01-15T02:14:28;31.43;;;14.17;;
13415;SDS011;6779;50.150;8.680;2024-01-15T02:16:53;35.07;;;14.77;;
13415;SDS011;6779;50.150;8.680;2024-01-15T02:19:19;32.83;;;13.77;;
13415;SDS011;6779;50.150;8.680;2024-01-15T02:21:44;32.60;;;14.90;;
13415;SDS011;6779;50.150;8.680;2024-01-15T02:24:10;29.77;;;12.90;;
13415;SDS011;6779;50.150;8.680;2024-01-15T02:26:35;34.40;;;14.67;;
13415;SDS011;6779;50.150;8.680;2024-01-15T02:29:02;35.97;;;16.27;;
13415;SDS011;6779;50.150;8.680;2024-01-15T02:31:27;36.90;;;14.77;;
13415;SDS011;6779;50.150;8.680;2024-01-15T02:33:52;35.37;;;16.07;;
13415;SDS011;6779;50.150;8.680;2024-01-15T02:36:18;35.43;;;15.83;;
13415;SDS011;6779;50.150;8.680;2024-01-15T02:38:43;34.10;;;15.73;;
13415;SDS011;6779;50.150;8.680;2024-01-15T02:41:08;31.37;;;14.70;;
13415;SDS011;6779;50.150;8.680;2024-01-15T02:43:34;37.07;;;14.37;;
13415;SDS011;6779;50.150;8.680;2024-01-15T02:45:59;34.83;;;15.00;;
13415;SDS011;6779;50.150;8.680;2024-01-15T02:48:24;35.20;;;13.37;;
13415;SDS011;6779;50.150;8.680;2024-01-15T02:50:50;34.20;;;15.43;;
13415;SDS011;6779;50.150;8.680;2024-01-15T02:53:15;30.87;;;14.07;;
13415;SDS011;6779;50.150;8.680;2024-01-15T02:55:40;36.57;;;15.33;;
13415;SDS011;6779;50.150;8.680;2024-01-15T02:58:07;37.10;;;14.63;;
13415;SDS011;6779;50.150;8.680;2024-01-15T03:00:32;34.30;;;13.53;;
13415;SDS011;6779;50.150;8.680;2024-01-15T03:02:58;34.13;;;14.83;;
13415;SDS011;6779;50.150;8.680;2024-01-15T03:05:23;33.17;;;14.07;;
13415;SDS011;6779;50.150;8.680;2024-01-15T03:07:48;36.30;;;14.83;;
13415;SDS011;6779;50.150;8.680;2024-01-15T03:10:14;34.87;;;16.00;;
13415;SDS011;6779;50.150;8.680;2024-01-15T03:12:39;36.00;;;15.07;;
13415;SDS011;6779;50.150;8.680;2024-01-15T03:15:04;34.93;;;15.47;;
13415;SDS011;6779;50.150;8.680;2024-01-15T03:17:30;36.43;;;14.97;;
13415;SDS011;6779;50.150;8.680;2024-01-15T03:19:55;32.10;;;15.60;;
13415;SDS011;6779;50.150;8.680;2024-01-15T03:22:20;36.33;;;15.60;;
13415;SDS011;6779;50.150;8.680;2024-01-15T03:24:46;32.77;;;14.90;;
13415;SDS011;6779;50.150;8.680;2024-01-15T03:27:11;36.37;;;13.43;;
13415;SDS011;6779;50.150;8.680;2024-01-15T03:29:36;35.60;;;15.83;;
13415;SDS011;6779;50.150;8.680;2024-01-15T03:32:02;35.47;;;14.17;;
13415;SDS011;6779;50.150;8.680;2024-01-15T03:34:27;33.13;;;14.60;;
13415;SDS011;6779;50.150;8.680;2024-01-15T03:36:53;33.33;;;14.20;;
13415;SDS011;6779;50.150;8.680;2024-01-15T03:39:18;33.80;;;14.43;;
13415;SDS011;6779;50.150;8.680;2024-01-15T03:41:43;33.10;;;15.00;;
13415;SDS011;6779;50.150;8.680;2024-01-15T03:44:08;30.97;;;14.57;;
13415;SDS011;6779;50.150;8.680;2024-01-15T03:46:34;31.97;;;14.63;;
13415;SDS011;6779;50.150;8.680;2024-01-15T03:48:59;35.07;;;15.70;;
13415;SDS011;6779;50.150;8.680;2024-01-15T03:51:24;29.83;;;13.57;;
13415;SDS011;6779;50.150;8.680;2024-01-15T03:53:50;33.47;;;14.87;;
13415;SDS011;6779;50.150;8.680;2024-01-15T03:56:15;32.07;;;12.63;;
13415;SDS011;6779;50.150;8.680;2024-01-15T03:58:40;30.83;;;13.07;;
13415;SDS011;6779;50.150;8.680;2024-01-15T04:01:09;31.37;;;13.30;;
13415;SDS011;6779;50.150;8.680;2024-01-15T04:03:35;35.10;;;13.97;;
13415;SDS011;6779;50.150;8.680;2024-01-15T04:06:00;34.03;;;13.77;;
13415;SDS011;6779;50.150;8.680;2024-01-15T04:08:25;33.70;;;14.30;;
13415;SDS011;6779;50.150;8.680;2024-01-15T04:10:51;27.37;;;14.00;;
13415;SDS011;6779;50.150;8.680;2024-01-15T04:13:16;32.47;;;14.67;;
13415;SDS011;6779;50.150;8.680;2024-01-15T04:15:41;37.10;;;13.13;;
13415;SDS011;6779;50.150;8.680;2024-01-15T04:18:06;33.03;;;13.67;;
13415;SDS011;6779;50.150;8.680;2024-01-15T04:20:32;31.57;;;13.47;;
13415;SDS011;6779;50.150;8.680;2024-01-15T04:22:57;31.93;;;12.53;;
13415;SDS011;6779;50.150;8.680;2024-01-15T04:25:22;30.20;;;12.50;;
13415;SDS011;6779;50.150;8.680;2024-01-15T04:27:48;28.20;;;13.33;;
13415;SDS011;6779;50.150;8.680;2024-01-15T04:30:13;27.40;;;11.83;;
13415;SDS011;6779;50.150;8.680;2024-01-15T04:32:38;28.67;;;12.23;;
13415;SDS011;6779;50.150;8.680;2024-01-15T04:35:04;25.83;;;12.03;;
13415;SDS011;6779;50.150;8.680;2024-01-15T04:37:29;29.23;;;12.90;;
13415;SDS011;6779;50.150;8.680;2024-01-15T04:39:54;32.07;;;12.57;;
13415;SDS011;6779;50.150;8.680;2024-01-15T04:42:23;26.97;;;11.17;;
13415;SDS011;6779;50.150;8.680;2024-01-15T04:44:48;26.90;;;11.80;;
13415;SDS011;6779;50.150;8.680;2024-01-15T04:47:14;28.43;;;11.60;;
13415;SDS011;6779;50.150;8.680;2024-01-15T04:49:39;24.93;;;12.60;;
13415;SDS011;6779;50.150;8.680;2024-01-15T04:52:04;30.90;;;14.17;;
13415;SDS011;6779;50.150;8.680;2024-01-15T04:54:30;29.07;;;12.27;;
13415;SDS011;6779;50.150;8.680;2024-01-15T04:56:55;25.43;;;11.83;;
13415;SDS011;6779;50.150;8.680;2024-01-15T04:59:20;27.27;;;12.17;;
13415;SDS011;6779;50.150;8.680;2024-01-15T05:01:46;27.60;;;13.10;;
13415;SDS011;6779;50.150;8.680;2024-01-15T05:04:11;28.37;;;12.67;;
13415;SDS011;6779;50.150;8.680;2024-01-15T05:06:36;27.47;;;12.13;;
13415;SDS011;6779;50.150;8.680;2024-01-15T05:09:02;27.97;;;12.17;;
13415;SDS011;6779;50.150;8.680;2024-01-15T05:11:28;29.47;;;12.97;;
13415;SDS011;6779;50.150;8.680;2024-01-15T05:13:54;24.63;;;11.30;;
13415;SDS011;6779;50.150;8.680;2024-01-15T05:16:19;25.63;;;12.77;;
13415;SDS011;6779;50.150;8.680;2024-01-15T05:18:44;24.27;;;12.27;;
13415;SDS011;6779;50.150;8.680;2024-01-15T05:21:10;28.33;;;12.27;;
13415;SDS011;6779;50.150;8.680;2024-01-15T05:23:35;24.73;;;11.80;;
13415;SDS011;6779;50.150;8.680;2024-01-15T05:26:01;31.23;;;13.10;;
13415;SDS011;6779;50.150;8.680;2024-01-15T05:28:26;28.97;;;13.03;;
13415;SDS011;6779;50.150;8.680;2024-01-15T05:30:51;27.13;;;12.63;;
13415;SDS011;6779;50.150;8.680;2024-01-15T05:33:17;25.17;;;12.43;;
13415;SDS011;6779;50.150;8.680;2024-01-15T05:35:43;26.50;;;11.43;;
13415;SDS011;6779;50.150;8.680;2024-01-15T05:38:08;27.77;;;12.27;;
13415;SDS011;6779;50.150;8.680;2024-01-15T05:40:33;31.17;;;12.40;;
13415;SDS011;6779;50.150;8.680;2024-01-15T05:42:58;28.43;;;11.90;;
13415;SDS011;6779;50.150;8.680;2024-01-15T05:45:25;30.53;;;12.77;;
13415;SDS011;6779;50.150;8.680;2024-01-15T05:47:51;28.33;;;12.47;;
13415;SDS011;6779;50.150;8.680;2024-01-15T05:50:16;29.57;;;13.13;;
13415;SDS011;6779;50.150;8.680;2024-01-15T05:52:42;29.13;;;12.63;;
13415;SDS011;6779;50.150;8.680;2024-01-15T05:55:07;32.97;;;13.80;;
13415;SDS011;6779;50.150;8.680;2024-01-15T05:57:32;27.37;;;12.30;;
13415;SDS011;6779;50.150;8.680;2024-01-15T05:59:58;32.43;;;13.77;;
13415;SDS011;6779;50.150;8.680;2024-01-15T06:02:23;27.07;;;13.77;;
13415;SDS011;6779;50.150;8.680;2024-01-15T06:04:48;30.10;;;12.93;;
13415;SDS011;6779;50.150;8.680;2024-01-15T06:07:14;30.13;;;13.97;;
13415;SDS011;6779;50.150;8.680;2024-01-15T06:09:39;26.93;;;12.63;;
13415;SDS011;6779;50.150;8.680;2024-01-15T06:12:05;32.47;;;13.90;;
13415;SDS011;6779;50.150;8.680;2024-01-15T06:14:32;30.80;;;14.20;;
13415;SDS011;6779;50.150;8.680;2024-01-15T06:16:57;27.87;;;13.13;;
13415;SDS011;6779;50.150;8.680;2024-01-15T06:19:22;29.03;;;13.30;;
13415;SDS011;6779;50.150;8.680;2024-01-15T06:21:48;35.37;;;15.27;;
13415;SDS011;6779;50.150;8.680;2024-01-15T06:24:13;32.10;;;14.37;;
13415;SDS011;6779;50.150;8.680;2024-01-15T06:26:38;31.53;;;14.03;;
13415;SDS011;6779;50.150;8.680;2024-01-15T06:29:04;31.87;;;13.73;;
13415;SDS011;6779;50.150;8.680;2024-01-15T06:31:29;31.27;;;13.30;;
13415;SDS011;6779;50.150;8.680;2024-01-15T06:33:55;31.90;;;14.37;;
13415;SDS011;6779;50.150;8.680;2024-01-15T06:36:20;33.47;;;13.87;;
13415;SDS011;6779;50.150;8.680;2024-01-15T06:38:45;34.83;;;13.57;;
13415;SDS011;6779;50.150;8.680;2024-01-15T06:41:11;31.57;;;13.87;;
13415;SDS011;6779;50.150;8.680;2024-01-15T06:43:36;30.47;;;14.23;;
13415;SDS011;6779;50.150;8.680;2024-01-15T06:46:01;31.73;;;13.97;;
13415;SDS011;6779;50.150;8.680;2024-01-15T06:48:27;33.67;;;14.97;;
13415;SDS011;6779;50.150;8.680;2024-01-15T06:50:52;36.23;;;15.90;;
13415;SDS011;6779;50.150;8.680;2024-01-15T06:53:17;34.67;;;14.57;;
13415;SDS011;6779;50.150;8.680;2024-01-15T06:55:43;32.43;;;14.87;;
13415;SDS011;6779;50.150;8.680;2024-01-15T06:58:08;31.90;;;15.13;;
13415;SDS011;6779;50.150;8.680;2024-01-15T07:00:33;30.00;;;14.17;;
13415;SDS011;6779;50.150;8.680;2024-01-15T07:02:59;33.90;;;14.63;;
13415;SDS011;6779;50.150;8.680;2024-01-15T07:05:24;31.60;;;15.17;;
13415;SDS011;6779;50.150;8.680;2024-01-15T07:07:49;32.47;;;15.40;;
13415;SDS011;6779;50.150;8.680;2024-01-15T07:10:15;35.63;;;14.63;;
13415;SDS011;6779;50.150;8.680;2024-01-15T07:12:42;34.23;;;13.80;;
13415;SDS011;6779;50.150;8.680;2024-01-15T07:15:09;32.40;;;15.13;;
13415;SDS011;6779;50.150;8.680;2024-01-15T07:17:34;33.50;;;14.47;;
13415;SDS011;6779;50.150;8.680;2024-01-15T07:20:00;31.97;;;15.20;;
13415;SDS011;6779;50.150;8.680;2024-01-15T07:22:25;30.30;;;13.23;;
13415;SDS011;6779;50.150;8.680;2024-01-15T07:24:50;29.67;;;13.40;;
13415;SDS011;6779;50.150;8.680;2024-01-15T07:27:16;32.80;;;14.27;;
13415;SDS011;6779;50.150;8.680;2024-01-15T07:29:41;35.23;;;15.73;;
13415;SDS011;6779;50.150;8.680;2024-01-15T07:32:07;37.40;;;15.90;;
13415;SDS011;6779;50.150;8.680;2024-01-15T07:34:33;35.57;;;15.70;;
13415;SDS011;6779;50.150;8.680;2024-01-15T07:36:58;34.97;;;15.57;;
13415;SDS011;6779;50.150;8.680;2024-01-15T07:39:23;37.27;;;15.70;;
13415;SDS011;6779;50.150;8.680;2024-01-15T07:41:50;38.33;;;15.40;;
13415;SDS011;6779;50.150;8.680;2024-01-15T07:44:15;34.43;;;14.37;;
13415;SDS011;6779;50.150;8.680;2024-01-15T07:46:44;35.23;;;14.97;;
13415;SDS011;6779;50.150;8.680;2024-01-15T07:49:10;36.53;;;13.17;;
13415;SDS011;6779;50.150;8.680;2024-01-15T07:51:36;33.47;;;16.00;;
13415;SDS011;6779;50.150;8.680;2024-01-15T07:54:01;29.67;;;15.00;;
13415;SDS011;6779;50.150;8.680;2024-01-15T07:56:27;31.70;;;14.60;;
13415;SDS011;6779;50.150;8.680;2024-01-15T07:58:52;34.77;;;15.13;;
13415;SDS011;6779;50.150;8.680;2024-01-15T08:01:17;31.77;;;14.13;;
13415;SDS011;6779;50.150;8.680;2024-01-15T08:03:43;26.87;;;13.30;;
13415;SDS011;6779;50.150;8.680;2024-01-15T08:06:08;33.90;;;14.40;;
13415;SDS011;6779;50.150;8.680;2024-01-15T08:08:34;31.77;;;13.60;;
13415;SDS011;6779;50.150;8.680;2024-01-15T08:11:00;33.57;;;15.23;;
13415;SDS011;6779;50.150;8.680;2024-01-15T08:13:26;36.63;;;15.80;;
13415;SDS011;6779;50.150;8.680;2024-01-15T08:15:51;35.23;;;14.83;;
13415;SDS011;6779;50.150;8.680;2024-01-15T08:18:17;33.30;;;15.73;;
13415;SDS011;6779;50.150;8.680;2024-01-15T08:20:42;37.37;;;15.70;;
13415;SDS011;6779;50.150;8.680;2024-01-15T08:23:07;33.70;;;15.47;;
13415;SDS011;6779;50.150;8.680;2024-01-15T08:25:33;30.90;;;15.07;;
13415;SDS011;6779;50.150;8.680;2024-01-15T08:27:58;37.63;;;15.40;;
13415;SDS011;6779;50.150;8.680;2024-01-15T08:30:24;36.30;;;15.63;;
13415;SDS011;6779;50.150;8.680;2024-01-15T08:32:52;31.03;;;15.40;;
13415;SDS011;6779;50.150;8.680;2024-01-15T08:35:18;36.47;;;15.50;;
13415;SDS011;6779;50.150;8.680;2024-01-15T08:37:47;29.73;;;15.63;;
13415;SDS011;6779;50.150;8.680;2024-01-15T08:40:13;37.67;;;15.13;;
13415;SDS011;6779;50.150;8.680;2024-01-15T08:42:38;33.60;;;15.37;;
13415;SDS011;6779;50.150;8.680;2024-01-15T08:45:03;39.00;;;15.73;;
13415;SDS011;6779;50.150;8.680;2024-01-15T08:47:29;39.30;;;15.47;;
13415;SDS011;6779;50.150;8.680;2024-01-15T08:49:54;34.53;;;15.30;;
13415;SDS011;6779;50.150;8.680;2024-01-15T08:52:20;38.63;;;16.43;;
13415;SDS011;6779;50.150;8.680;2024-01-15T08:54:45;33.40;;;14.37;;
13415;SDS011;6779;50.150;8.680;2024-01-15T08:57:10;34.23;;;15.43;;
13415;SDS011;6779;50.150;8.680;2024-01-15T08:59:36;31.80;;;14.67;;
13415;SDS011;6779;50.150;8.680;2024-01-15T09:02:02;35.90;;;16.07;;
13415;SDS011;6779;50.150;8.680;2024-01-15T09:04:27;32.60;;;15.73;;
13415;SDS011;6779;50.150;8.680;2024-01-15T09:06:52;32.83;;;14.73;;
13415;SDS011;6779;50.150;8.680;2024-01-15T09:09:17;33.63;;;14.87;;
13415;SDS011;6779;50.150;8.680;2024-01-15T09:11:43;40.13;;;16.23;;
13415;SDS011;6779;50.150;8.680;2024-01-15T09:14:08;30.53;;;14.10;;
13415;SDS011;6779;50.150;8.680;2024-01-15T09:16:34;32.70;;;15.67;;
13415;SDS011;6779;50.150;8.680;2024-01-15T09:18:59;34.57;;;14.10;;
13415;SDS011;6779;50.150;8.680;2024-01-15T09:21:25;31.80;;;14.83;;
13415;SDS011;6779;50.150;8.680;2024-01-15T09:23:50;32.03;;;15.10;;
13415;SDS011;6779;50.150;8.680;2024-01-15T09:26:16;31.37;;;15.03;;
13415;SDS011;6779;50.150;8.680;2024-01-15T09:28:41;27.27;;;13.77;;
13415;SDS011;6779;50.150;8.680;2024-01-15T09:31:07;33.00;;;15.27;;
13415;SDS011;6779;50.150;8.680;2024-01-15T09:33:32;27.50;;;14.23;;
13415;SDS011;6779;50.150;8.680;2024-01-15T09:35:57;29.23;;;14.80;;
13415;SDS011;6779;50.150;8.680;2024-01-15T09:38:22;29.10;;;13.83;;
13415;SDS011;6779;50.150;8.680;2024-01-15T09:40:49;28.77;;;14.03;;
13415;SDS011;6779;50.150;8.680;2024-01-15T09:43:14;27.83;;;13.17;;
13415;SDS011;6779;50.150;8.680;2024-01-15T09:45:40;29.57;;;14.07;;
13415;SDS011;6779;50.150;8.680;2024-01-15T09:48:06;29.80;;;14.90;;
13415;SDS011;6779;50.150;8.680;2024-01-15T09:50:32;25.97;;;13.30;;
13415;SDS011;6779;50.150;8.680;2024-01-15T09:52:57;29.07;;;13.23;;
13415;SDS011;6779;50.150;8.680;2024-01-15T09:55:23;27.43;;;12.97;;
13415;SDS011;6779;50.150;8.680;2024-01-15T09:57:48;25.03;;;12.30;;
13415;SDS011;6779;50.150;8.680;2024-01-15T10:00:14;25.97;;;12.77;;
13415;SDS011;6779;50.150;8.680;2024-01-15T10:02:42;26.80;;;13.33;;
13415;SDS011;6779;50.150;8.680;2024-01-15T10:05:07;25.37;;;12.63;;
13415;SDS011;6779;50.150;8.680;2024-01-15T10:07:34;23.50;;;12.73;;
13415;SDS011;6779;50.150;8.680;2024-01-15T10:10:00;24.83;;;12.93;;
13415;SDS011;6779;50.150;8.680;2024-01-15T10:12:25;24.97;;;12.10;;
13415;SDS011;6779;50.150;8.680;2024-01-15T10:14:52;24.73;;;12.77;;
13415;SDS011;6779;50.150;8.680;2024-01-15T10:17:17;22.13;;;12.50;;
13415;SDS011;6779;50.150;8.680;2024-01-15T10:19:42;29.30;;;13.43;;
13415;SDS011;6779;50.150;8.680;2024-01-15T10:22:08;23.97;;;12.60;;
13415;SDS011;6779;50.150;8.680;2024-01-15T10:24:37;23.30;;;12.37;;
13415;SDS011;6779;50.150;8.680;2024-01-15T10:27:04;23.57;;;12.83;;
13415;SDS011;6779;50.150;8.680;2024-01-15T10:29:31;25.60;;;12.90;;
13415;SDS011;6779;50.150;8.680;2024-01-15T10:31:56;27.93;;;12.93;;
13415;SDS011;6779;50.150;8.680;2024-01-15T10:34:22;26.17;;;12.57;;
13415;SDS011;6779;50.150;8.680;2024-01-15T10:36:47;23.27;;;12.60;;
13415;SDS011;6779;50.150;8.680;2024-01-15T10:39:14;25.80;;;11.77;;
13415;SDS011;6779;50.150;8.680;2024-01-15T10:41:39;21.90;;;12.00;;
13415;SDS011;6779;50.150;8.680;2024-01-15T10:44:05;21.10;;;11.57;;
13415;SDS011;6779;50.150;8.680;2024-01-15T10:46:30;24.90;;;11.60;;
13415;SDS011;6779;50.150;8.680;2024-01-15T10:48:56;22.17;;;11.43;;
13415;SDS011;6779;50.150;8.680;2024-01-15T10:51:21;24.23;;;11.47;;
13415;SDS011;6779;50.150;8.680;2024-01-15T10:53:48;19.40;;;10.97;;
13415;SDS011;6779;50.150;8.680;2024-01-15T10:56:13;20.90;;;11.73;;
13415;SDS011;6779;50.150;8.680;2024-01-15T10:58:39;23.37;;;12.23;;
13415;SDS011;6779;50.150;8.680;2024-01-15T11:01:05;23.27;;;12.43;;
13415;SDS011;6779;50.150;8.680;2024-01-15T11:03:30;22.00;;;11.97;;
13415;SDS011;6779;50.150;8.680;2024-01-15T11:05:57;25.40;;;12.80;;
13415;SDS011;6779;50.150;8.680;2024-01-15T11:08:23;24.40;;;12.93;;
13415;SDS011;6779;50.150;8.680;2024-01-15T11:10:52;23.07;;;12.83;;
13415;SDS011;6779;50.150;8.680;2024-01-15T11:13:20;20.23;;;11.40;;
13415;SDS011;6779;50.150;8.680;2024-01-15T11:15:59;21.80;;;12.50;;
13415;SDS011;6779;50.150;8.680;2024-01-15T11:18:26;24.00;;;11.80;;
13415;SDS011;6779;50.150;8.680;2024-01-15T11:23:42;20.27;;;12.70;;
13415;SDS011;6779;50.150;8.680;2024-01-15T11:29:09;23.93;;;11.77;;
13415;SDS011;6779;50.150;8.680;2024-01-15T11:34:19;23.23;;;12.20;;
13415;SDS011;6779;50.150;8.680;2024-01-15T11:41:56;22.60;;;12.07;;
13415;SDS011;6779;50.150;8.680;2024-01-15T11:44:22;21.03;;;12.27;;
13415;SDS011;6779;50.150;8.680;2024-01-15T11:47:09;20.93;;;12.20;;
13415;SDS011;6779;50.150;8.680;2024-01-15T11:52:26;22.00;;;12.13;;
13415;SDS011;6779;50.150;8.680;2024-01-15T11:57:53;18.90;;;11.67;;
13415;SDS011;6779;50.150;8.680;2024-01-15T12:00:22;17.57;;;11.27;;
13415;SDS011;6779;50.150;8.680;2024-01-15T12:02:48;20.20;;;11.97;;
13415;SDS011;6779;50.150;8.680;2024-01-15T12:05:17;22.20;;;11.63;;
13415;SDS011;6779;50.150;8.680;2024-01-15T12:07:44;21.43;;;12.07;;
13415;SDS011;6779;50.150;8.680;2024-01-15T12:10:14;20.77;;;11.87;;
13415;SDS011;6779;50.150;8.680;2024-01-15T12:15:09;25.97;;;12.47;;
13415;SDS011;6779;50.150;8.680;2024-01-15T12:17:34;21.13;;;12.00;;
13415;SDS011;6779;50.150;8.680;2024-01-15T12:20:00;21.67;;;12.03;;
13415;SDS011;6779;50.150;8.680;2024-01-15T12:22:25;20.50;;;11.10;;
13415;SDS011;6779;50.150;8.680;2024-01-15T12:24:52;17.40;;;10.53;;
13415;SDS011;6779;50.150;8.680;2024-01-15T12:27:17;19.47;;;11.07;;
13415;SDS011;6779;50.150;8.680;2024-01-15T12:29:43;18.60;;;10.70;;
13415;SDS011;6779;50.150;8.680;2024-01-15T12:32:08;18.70;;;10.33;;
13415;SDS011;6779;50.150;8.680;2024-01-15T12:34:33;15.93;;;9.67;;
13415;SDS011;6779;50.150;8.680;2024-01-15T12:36:59;18.77;;;10.37;;
13415;SDS011;6779;50.150;8.680;2024-01-15T12:39:24;18.37;;;9.83;;
13415;SDS011;6779;50.150;8.680;2024-01-15T12:41:49;16.43;;;10.00;;
13415;SDS011;6779;50.150;8.680;2024-01-15T12:44:15;16.73;;;9.87;;
13415;SDS011;6779;50.150;8.680;2024-01-15T12:46:41;16.87;;;9.60;;
13415;SDS011;6779;50.150;8.680;2024-01-15T12:49:07;18.17;;;9.50;;
13415;SDS011;6779;50.150;8.680;2024-01-15T12:51:34;17.23;;;10.30;;
13415;SDS011;6779;50.150;8.680;2024-01-15T12:53:59;18.20;;;9.77;;
13415;SDS011;6779;50.150;8.680;2024-01-15T12:56:24;16.70;;;9.43;;
13415;SDS011;6779;50.150;8.680;2024-01-15T12:58:50;16.80;;;9.57;;
13415;SDS011;6779;50.150;8.680;2024-01-15T13:01:15;15.80;;;8.80;;
13415;SDS011;6779;50.150;8.680;2024-01-15T13:03:40;15.97;;;9.40;;
13415;SDS011;6779;50.150;8.680;2024-01-15T13:06:06;15.80;;;9.00;;
13415;SDS011;6779;50.150;8.680;2024-01-15T13:08:31;15.27;;;9.00;;
13415;SDS011;6779;50.150;8.680;2024-01-15T13:10:57;15.53;;;9.17;;
13415;SDS011;6779;50.150;8.680;2024-01-15T13:13:22;15.10;;;9.30;;
13415;SDS011;6779;50.150;8.680;2024-01-15T13:15:48;14.73;;;9.07;;
13415;SDS011;6779;50.150;8.680;2024-01-15T13:18:13;12.77;;;8.70;;
13415;SDS011;6779;50.150;8.680;2024-01-15T13:20:38;11.73;;;7.40;;
13415;SDS011;6779;50.150;8.680;2024-01-15T13:23:04;15.83;;;7.77;;
13415;SDS011;6779;50.150;8.680;2024-01-15T13:25:29;14.70;;;7.73;;
13415;SDS011;6779;50.150;8.680;2024-01-15T13:27:54;13.40;;;8.03;;
13415;SDS011;6779;50.150;8.680;2024-01-15T13:30:20;10.63;;;7.27;;
13415;SDS011;6779;50.150;8.680;2024-01-15T13:32:45;12.00;;;7.70;;
13415;SDS011;6779;50.150;8.680;2024-01-15T13:35:11;12.33;;;7.43;;
13415;SDS011;6779;50.150;8.680;2024-01-15T13:37:38;14.37;;;8.07;;
13415;SDS011;6779;50.150;8.680;2024-01-15T13:40:05;12.57;;;7.40;;
13415;SDS011;6779;50.150;8.680;2024-01-15T13:42:32;15.63;;;8.00;;
13415;SDS011;6779;50.150;8.680;2024-01-15T13:44:58;13.30;;;8.13;;
13415;SDS011;6779;50.150;8.680;2024-01-15T13:47:23;10.53;;;6.63;;
13415;SDS011;6779;50.150;8.680;2024-01-15T13:49:49;11.27;;;6.30;;
13415;SDS011;6779;50.150;8.680;2024-01-15T13:52:14;10.37;;;6.13;;
13415;SDS011;6779;50.150;8.680;2024-01-15T13:54:39;9.87;;;6.10;;
13415;SDS011;6779;50.150;8.680;2024-01-15T13:57:05;9.07;;;5.77;;
13415;SDS011;6779;50.150;8.680;2024-01-15T13:59:34;9.17;;;5.10;;
13415;SDS011;6779;50.150;8.680;2024-01-15T14:01:59;10.27;;;5.27;;
13415;SDS011;6779;50.150;8.680;2024-01-15T14:04:24;8.57;;;5.53;;
13415;SDS011;6779;50.150;8.680;2024-01-15T14:06:49;8.97;;;6.07;;
13415;SDS011;6779;50.150;8.680;2024-01-15T14:09:15;8.53;;;5.73;;
13415;SDS011;6779;50.150;8.680;2024-01-15T14:11:40;9.17;;;5.70;;
13415;SDS011;6779;50.150;8.680;2024-01-15T14:14:06;8.03;;;5.50;;
13415;SDS011;6779;50.150;8.680;2024-01-15T14:16:33;6.50;;;4.67;;
13415;SDS011;6779;50.150;8.680;2024-01-15T14:18:59;6.97;;;4.23;;
13415;SDS011;6779;50.150;8.680;2024-01-15T14:21:24;8.47;;;5.03;;
13415;SDS011;6779;50.150;8.680;2024-01-15T14:23:49;8.23;;;4.03;;
13415;SDS011;6779;50.150;8.680;2024-01-15T14:26:15;8.70;;;4.70;;
13415;SDS011;6779;50.150;8.680;2024-01-15T14:28:40;5.03;;;4.23;;
13415;SDS011;6779;50.150;8.680;2024-01-15T14:31:05;9.57;;;4.13;;
13415;SDS011;6779;50.150;8.680;2024-01-15T14:33:31;7.47;;;3.93;;
13415;SDS011;6779;50.150;8.680;2024-01-15T14:35:56;7.70;;;4.67;;
13415;SDS011;6779;50.150;8.680;2024-01-15T14:38:22;8.40;;;4.40;;
13415;SDS011;6779;50.150;8.680;2024-01-15T14:40:48;7.83;;;4.10;;
13415;SDS011;6779;50.150;8.680;2024-01-15T14:43:14;5.80;;;4.00;;
13415;SDS011;6779;50.150;8.680;2024-01-15T14:45:39;9.03;;;4.47;;
13415;SDS011;6779;50.150;8.680;2024-01-15T14:48:05;7.93;;;4.37;;
13415;SDS011;6779;50.150;8.680;2024-01-15T14:50:30;12.97;;;5.03;;